createdAt,value
2019-03-13T00:04:08.919Z,97734.63
2019-03-13T00:06:38.093Z,97760.14
2019-03-13T00:09:12.118Z,97764.77
2019-03-13T00:11:41.401Z,97773.64
2019-03-13T00:14:10.626Z,97773.09
2019-03-13T00:16:39.778Z,97791.92
2019-03-13T00:19:09.158Z,97796.67
2019-03-13T00:21:38.296Z,97786.75
2019-03-13T00:24:07.507Z,97827.55
2019-03-13T00:26:36.799Z,97850.30
2019-03-13T00:29:06.139Z,97830.42
2019-03-13T00:31:35.319Z,97829.20
2019-03-13T00:34:05.172Z,97852.14
2019-03-13T00:36:35.533Z,97883.48
2019-03-13T00:39:06.797Z,97905.32
2019-03-13T00:41:36.639Z,97921.66
2019-03-13T00:44:06.264Z,97915.37
2019-03-13T00:46:36.101Z,97888.24
2019-03-13T00:49:06.146Z,97887.89
2019-03-13T00:51:37.107Z,97909.56
2019-03-13T00:54:07.795Z,97950.22
2019-03-13T00:56:37.592Z,97964.60
2019-03-13T00:59:08.150Z,97977.22
2019-03-13T01:01:56.718Z,97981.15
2019-03-13T01:04:44.895Z,97969.41
2019-03-13T01:07:14.051Z,98009.41
2019-03-13T01:09:43.452Z,98033.17
2019-03-13T01:12:13.327Z,98004.19
2019-03-13T01:14:43.655Z,98018.55
2019-03-13T01:17:13.003Z,98036.38
2019-03-13T01:19:42.540Z,98042.78
2019-03-13T01:22:11.703Z,98041.13
2019-03-13T01:24:40.845Z,98063.20
2019-03-13T01:27:10.358Z,98071.50
2019-03-13T01:29:39.828Z,98089.91
2019-03-13T01:32:29.509Z,98094.55
2019-03-13T01:35:08.630Z,98108.91
2019-03-13T01:37:39.275Z,98130.38
2019-03-13T01:40:10.942Z,98128.61
2019-03-13T01:42:41.248Z,98132.88
2019-03-13T01:45:11.676Z,98119.72
2019-03-13T01:47:42.074Z,98145.72
2019-03-13T01:50:12.946Z,98155.45
2019-03-13T01:52:43.699Z,98165.50
2019-03-13T01:55:14.274Z,98161.22
2019-03-13T01:57:43.409Z,98168.56
2019-03-13T02:00:13.617Z,98163.50
2019-03-13T02:02:42.788Z,98171.73
2019-03-13T02:05:12.500Z,98183.48
2019-03-13T02:07:43.131Z,98190.47
2019-03-13T02:10:14.540Z,98192.13
2019-03-13T02:12:44.993Z,98195.95
2019-03-13T02:15:16.790Z,98202.68
2019-03-13T02:17:48.277Z,98203.73
2019-03-13T02:20:19.171Z,98211.21
2019-03-13T02:22:49.171Z,98204.34
2019-03-13T02:25:19.260Z,98206.40
2019-03-13T02:27:49.907Z,98210.28
2019-03-13T02:30:21.711Z,98206.59
2019-03-13T02:32:51.249Z,98207.67
2019-03-13T02:35:21.128Z,98211.45
2019-03-13T02:37:51.413Z,98213.56
2019-03-13T02:40:23.668Z,98216.28
2019-03-13T02:42:53.637Z,98221.02
2019-03-13T02:45:23.805Z,98222.78
2019-03-13T02:47:54.091Z,98224.37
2019-03-13T02:50:25.220Z,98219.69
2019-03-13T02:52:55.337Z,98231.31
2019-03-13T02:55:26.847Z,98224.37
2019-03-13T02:57:57.803Z,98224.83
2019-03-13T03:00:45.807Z,98229.47
2019-03-13T03:03:28.906Z,98230.28
2019-03-13T03:06:00.633Z,98230.33
2019-03-13T03:08:30.886Z,98228.67
2019-03-13T03:11:01.415Z,98230.78
2019-03-13T03:13:31.938Z,98230.97
2019-03-13T03:16:02.597Z,98236.46
2019-03-13T03:18:32.815Z,98232.23
2019-03-13T03:21:02.351Z,98231.81
2019-03-13T03:23:31.767Z,98241.13
2019-03-13T03:26:01.987Z,98237.22
2019-03-13T03:28:31.287Z,98243.89
2019-03-13T03:31:00.947Z,98246.36
2019-03-13T03:33:32.851Z,98243.52
2019-03-13T03:36:04.897Z,98258.64
2019-03-13T03:38:34.604Z,98267.92
2019-03-13T03:41:05.331Z,98266.55
2019-03-13T03:43:40.535Z,98269.46
2019-03-13T03:46:07.532Z,98262.09
2019-03-13T03:48:38.211Z,98275.59
2019-03-13T03:51:07.889Z,98276.83
2019-03-13T03:53:37.831Z,98274.33
2019-03-13T03:56:09.178Z,98269.05
2019-03-13T03:58:41.960Z,98268.97
2019-03-13T04:01:11.153Z,98269.62
2019-03-13T04:03:41.184Z,98267.73
2019-03-13T04:06:11.845Z,98258.75
2019-03-13T04:08:42.137Z,98263.83
2019-03-13T04:11:11.846Z,98267.62
2019-03-13T04:13:44.812Z,98265.01
2019-03-13T04:16:13.001Z,98274.45
2019-03-13T04:18:43.239Z,98270.30
2019-03-13T04:21:12.605Z,98252.98
2019-03-13T04:23:42.464Z,98283.50
2019-03-13T04:26:13.090Z,98272.97
2019-03-13T04:28:42.901Z,98269.41
2019-03-13T04:31:12.106Z,98284.72
2019-03-13T04:33:41.709Z,98280.63
2019-03-13T04:36:11.647Z,98283.88
2019-03-13T04:38:41.628Z,98288.65
2019-03-13T04:41:11.354Z,98278.33
2019-03-13T04:43:40.506Z,98281.84
2019-03-13T04:46:09.649Z,98284.52
2019-03-13T04:48:38.805Z,98284.52
2019-03-13T04:51:07.975Z,98294.91
2019-03-13T04:53:37.119Z,98292.72
2019-03-13T04:56:06.393Z,98292.38
2019-03-13T04:58:35.563Z,98283.12
2019-03-13T05:01:04.702Z,98279.02
2019-03-13T05:03:33.873Z,98289.45
2019-03-13T05:06:28.502Z,98291.72
2019-03-13T05:09:19.251Z,98294.95
2019-03-13T05:11:50.950Z,98291.88
2019-03-13T05:14:21.440Z,98301.20
2019-03-13T05:16:52.397Z,98303.34
2019-03-13T05:19:22.154Z,98301.50
2019-03-13T05:21:52.851Z,98307.03
2019-03-13T05:24:22.824Z,98302.50
2019-03-13T05:26:52.853Z,98299.44
2019-03-13T05:29:22.611Z,98302.55
2019-03-13T05:31:52.599Z,98308.08
2019-03-13T05:34:21.955Z,98312.21
2019-03-13T05:36:51.360Z,98320.44
2019-03-13T05:39:20.549Z,98311.30
2019-03-13T05:41:49.716Z,98319.40
2019-03-13T05:44:19.002Z,98310.53
2019-03-13T05:46:48.180Z,98325.81
2019-03-13T05:49:17.436Z,98325.50
2019-03-13T05:51:46.590Z,98335.13
2019-03-13T05:54:15.913Z,98339.09
2019-03-13T05:56:45.100Z,98341.44
2019-03-13T05:59:14.402Z,98335.88
2019-03-13T06:01:43.567Z,98325.85
2019-03-13T06:04:12.707Z,98333.11
2019-03-13T06:06:42.002Z,98324.66
2019-03-13T06:09:11.143Z,98321.81
2019-03-13T06:11:40.358Z,98323.47
2019-03-13T06:14:09.593Z,98325.58
2019-03-13T06:16:38.817Z,98330.99
2019-03-13T06:19:07.988Z,98330.56
2019-03-13T06:21:37.173Z,98332.72
2019-03-13T06:24:06.540Z,98329.77
2019-03-13T06:26:35.726Z,98317.48
2019-03-13T06:29:04.917Z,98323.31
2019-03-13T06:31:34.109Z,98306.14
2019-03-13T06:34:03.449Z,98310.78
2019-03-13T06:36:32.621Z,98293.81
2019-03-13T06:39:01.876Z,98291.70
2019-03-13T06:41:31.047Z,98288.85
2019-03-13T06:44:00.227Z,98293.44
2019-03-13T06:46:29.379Z,98307.15
2019-03-13T06:48:58.686Z,98295.05
2019-03-13T06:51:27.882Z,98296.82
2019-03-13T06:53:57.093Z,98294.20
2019-03-13T06:56:26.274Z,98292.25
2019-03-13T06:59:20.736Z,98297.21
2019-03-13T07:01:59.297Z,98289.08
2019-03-13T07:04:53.343Z,98287.70
2019-03-13T07:07:40.527Z,98281.41
2019-03-13T07:10:34.977Z,98286.00
2019-03-13T07:13:38.526Z,98275.14
2019-03-13T07:16:30.706Z,98273.98
2019-03-13T07:19:07.225Z,98272.85
2019-03-13T07:21:49.636Z,98279.45
2019-03-13T07:24:37.898Z,98270.98
2019-03-13T07:27:25.999Z,98280.81
2019-03-13T07:30:17.073Z,98291.48
2019-03-13T07:32:59.285Z,98289.17
2019-03-13T07:35:53.207Z,98293.80
2019-03-13T07:38:30.272Z,98291.56
2019-03-13T07:41:18.635Z,98282.80
2019-03-13T07:44:01.273Z,98282.71
2019-03-13T07:46:49.619Z,98291.53
2019-03-13T07:49:36.992Z,98289.66
2019-03-13T07:52:28.220Z,98291.02
2019-03-13T07:55:18.397Z,98288.66
2019-03-13T07:58:02.962Z,98279.59
2019-03-13T08:00:48.869Z,98270.09
2019-03-13T08:03:40.074Z,98283.05
2019-03-13T08:06:37.551Z,98266.88
2019-03-13T08:09:45.347Z,98279.97
2019-03-13T08:12:26.263Z,98290.19
2019-03-13T08:15:17.414Z,98297.83
2019-03-13T08:18:05.768Z,98295.43
2019-03-13T08:20:54.020Z,98292.47
2019-03-13T08:23:45.149Z,98295.42
2019-03-13T08:26:21.733Z,98296.97
2019-03-13T08:29:15.802Z,98293.77
2019-03-13T08:31:51.217Z,98285.19
2019-03-13T08:34:38.921Z,98271.86
2019-03-13T08:37:30.318Z,98275.08
2019-03-13T08:40:12.442Z,98270.09
2019-03-13T08:43:06.670Z,98281.62
2019-03-13T08:46:03.882Z,98263.21
2019-03-13T08:48:46.752Z,98260.47
2019-03-13T08:51:29.816Z,98281.62
2019-03-13T08:54:05.561Z,98265.70
2019-03-13T08:56:59.921Z,98248.09
2019-03-13T08:59:41.531Z,98259.38
2019-03-13T09:02:32.501Z,98258.75
2019-03-13T09:05:29.582Z,98269.33
2019-03-13T09:08:16.561Z,98254.21
2019-03-13T09:11:09.364Z,98261.75
2019-03-13T09:14:12.663Z,98260.56
2019-03-13T09:17:00.718Z,98252.78
2019-03-13T09:19:54.183Z,98252.10
2019-03-13T09:22:51.800Z,98253.38
2019-03-13T09:25:34.107Z,98248.72
2019-03-13T09:28:22.268Z,98254.16
2019-03-13T09:31:13.934Z,98260.12
2019-03-13T09:33:51.112Z,98256.30
2019-03-13T09:36:42.055Z,98245.97
2019-03-13T09:39:31.404Z,98248.91
2019-03-13T09:42:22.824Z,98245.26
2019-03-13T09:45:16.790Z,98253.39
2019-03-13T09:48:10.741Z,98252.80
2019-03-13T09:50:55.304Z,98242.41
2019-03-13T09:53:31.886Z,98254.61
2019-03-13T09:56:31.927Z,98247.24
2019-03-13T09:59:18.900Z,98227.13
2019-03-13T10:02:12.808Z,98212.72
2019-03-13T10:05:10.086Z,98217.84
2019-03-13T10:07:53.312Z,98217.98
2019-03-13T10:10:53.709Z,98206.59
2019-03-13T10:13:34.720Z,98210.68
2019-03-13T10:16:16.488Z,98190.49
2019-03-13T10:19:16.893Z,98206.74
2019-03-13T10:21:56.341Z,98204.31
2019-03-13T10:24:41.677Z,98192.98
2019-03-13T10:27:29.998Z,98199.50
2019-03-13T10:30:18.164Z,98181.31
2019-03-13T10:32:58.766Z,98192.56
2019-03-13T10:35:47.300Z,98190.64
2019-03-13T10:38:38.227Z,98197.19
2019-03-13T10:41:27.403Z,98211.59
2019-03-13T10:44:18.547Z,98206.48
2019-03-13T10:46:55.431Z,98220.56
2019-03-13T10:49:58.571Z,98213.55
2019-03-13T10:52:49.586Z,98216.10
2019-03-13T10:55:37.714Z,98224.93
2019-03-13T10:58:32.025Z,98216.03
2019-03-13T11:01:26.123Z,98217.44
2019-03-13T11:04:13.660Z,98216.97
2019-03-13T11:06:55.501Z,98211.69
2019-03-13T11:09:31.687Z,98228.58
2019-03-13T11:12:18.024Z,98210.87
2019-03-13T11:15:12.330Z,98212.93
2019-03-13T11:18:00.155Z,98210.99
2019-03-13T11:20:51.360Z,98211.69
2019-03-13T11:23:42.859Z,98211.46
2019-03-13T11:26:34.043Z,98197.20
2019-03-13T11:29:24.960Z,98206.30
2019-03-13T11:32:05.963Z,98195.14
2019-03-13T11:34:54.539Z,98200.73
2019-03-13T11:37:42.729Z,98201.28
2019-03-13T11:40:27.245Z,98202.87
2019-03-13T11:43:12.876Z,98200.06
2019-03-13T11:45:59.782Z,98200.06
2019-03-13T11:48:57.021Z,98190.39
2019-03-13T11:51:45.547Z,98189.89
2019-03-13T11:54:36.572Z,98170.20
2019-03-13T11:57:18.251Z,98188.35
2019-03-13T11:59:57.869Z,98199.11
2019-03-13T12:02:43.924Z,98226.45
2019-03-13T12:05:32.200Z,98232.28
2019-03-13T12:08:35.391Z,98212.58
2019-03-13T12:11:32.793Z,98218.32
2019-03-13T12:14:27.213Z,98203.56
2019-03-13T12:17:15.847Z,98180.04
2019-03-13T12:19:50.907Z,98185.64
2019-03-13T12:22:45.535Z,98173.82
2019-03-13T12:25:28.483Z,98170.48
2019-03-13T12:28:08.629Z,98154.83
2019-03-13T12:31:02.676Z,98153.41
2019-03-13T12:33:54.403Z,98156.05
2019-03-13T12:36:43.191Z,98149.55
2019-03-13T12:39:34.581Z,98152.49
2019-03-13T12:42:33.831Z,98149.84
2019-03-13T12:45:28.781Z,98144.39
2019-03-13T12:48:16.915Z,98149.16
2019-03-13T12:51:11.428Z,98147.82
2019-03-13T12:57:37.392Z,98124.76
2019-03-13T13:00:16.011Z,98128.04
2019-03-13T13:02:59.165Z,98111.88
2019-03-13T13:05:44.384Z,98113.13
2019-03-13T13:08:33.053Z,98101.91
2019-03-13T13:11:24.763Z,98098.97
2019-03-13T13:14:19.049Z,98079.84
2019-03-13T13:17:06.125Z,98087.73
2019-03-13T13:19:36.671Z,98084.58
2019-03-13T13:22:06.829Z,98084.14
2019-03-13T13:24:36.990Z,98083.22
2019-03-13T13:27:07.344Z,98084.45
2019-03-13T13:29:37.363Z,98091.28
2019-03-13T13:32:07.878Z,98088.29
2019-03-13T13:34:38.087Z,98096.51
2019-03-13T13:37:08.042Z,98099.48
2019-03-13T13:39:37.236Z,98101.44
2019-03-13T13:42:06.370Z,98101.91
2019-03-13T13:44:35.539Z,98091.49
2019-03-13T13:47:04.688Z,98095.30
2019-03-13T13:49:33.845Z,98090.91
2019-03-13T13:52:03.368Z,98086.89
2019-03-13T13:54:32.520Z,98093.90
2019-03-13T13:57:02.002Z,98095.04
2019-03-13T13:59:31.498Z,98094.69
2019-03-13T14:02:00.827Z,98103.41
2019-03-13T14:04:30.243Z,98105.39
2019-03-13T14:06:59.598Z,98089.71
2019-03-13T14:09:28.938Z,98084.33
2019-03-13T14:11:58.240Z,98077.48
2019-03-13T14:14:27.928Z,98084.36
2019-03-13T14:16:57.639Z,98067.44
2019-03-13T14:19:27.239Z,98078.84
2019-03-13T14:21:56.934Z,98088.49
2019-03-13T14:24:27.192Z,98085.91
2019-03-13T14:26:57.041Z,98087.31
2019-03-13T14:29:27.058Z,98086.62
2019-03-13T14:31:56.832Z,98096.55
2019-03-13T14:34:26.646Z,98083.85
2019-03-13T14:36:56.943Z,98079.36
2019-03-13T14:39:26.894Z,98080.91
2019-03-13T14:41:56.598Z,98083.86
2019-03-13T14:44:26.155Z,98096.93
2019-03-13T14:46:56.062Z,98100.81
2019-03-13T14:49:25.443Z,98091.28
2019-03-13T14:51:55.145Z,98091.42
2019-03-13T14:54:24.727Z,98097.04
2019-03-13T14:56:54.148Z,98104.20
2019-03-13T14:59:24.552Z,98100.81
2019-03-13T15:01:54.015Z,98097.20
2019-03-13T15:04:24.273Z,98098.48
2019-03-13T15:06:54.924Z,98095.69
2019-03-13T15:09:24.624Z,98095.65
2019-03-13T15:11:55.465Z,98087.17
2019-03-13T15:14:25.665Z,98086.36
2019-03-13T15:16:55.779Z,98080.72
2019-03-13T15:19:26.179Z,98086.59
2019-03-13T15:21:56.371Z,98090.05
2019-03-13T15:24:26.163Z,98084.00
2019-03-13T15:26:56.479Z,98081.81
2019-03-13T15:29:26.585Z,98099.96
2019-03-13T15:31:56.703Z,98092.47
2019-03-13T15:34:27.142Z,98093.66
2019-03-13T15:36:57.896Z,98094.75
2019-03-13T15:39:28.037Z,98088.05
2019-03-13T15:41:57.680Z,98093.70
2019-03-13T15:44:27.805Z,98083.91
2019-03-13T15:46:57.610Z,98080.92
2019-03-13T15:49:27.668Z,98074.23
2019-03-13T15:51:57.800Z,98070.73
2019-03-13T15:54:27.915Z,98058.61
2019-03-13T15:56:58.052Z,98068.08
2019-03-13T15:59:27.914Z,98066.59
2019-03-13T16:01:58.136Z,98055.55
2019-03-13T16:04:28.251Z,98058.30
2019-03-13T16:06:58.691Z,98054.95
2019-03-13T16:09:28.546Z,98053.53
2019-03-13T16:11:58.871Z,98052.11
2019-03-13T16:14:28.955Z,98049.19
2019-03-13T16:16:58.914Z,98050.07
2019-03-13T16:19:29.041Z,98049.83
2019-03-13T16:21:58.859Z,98039.97
2019-03-13T16:24:29.144Z,98040.64
2019-03-13T16:26:58.952Z,98045.07
2019-03-13T16:29:30.914Z,98048.56
2019-03-13T16:32:00.929Z,98044.98
2019-03-13T16:34:30.556Z,98045.92
2019-03-13T16:37:00.327Z,98037.12
2019-03-13T16:39:30.452Z,98028.75
2019-03-13T16:42:00.659Z,98043.13
2019-03-13T16:44:30.704Z,98043.66
2019-03-13T16:47:01.312Z,98040.48
2019-03-13T16:49:34.026Z,98044.30
2019-03-13T16:52:04.838Z,98051.05
2019-03-13T16:54:36.112Z,98042.49
2019-03-13T16:57:05.926Z,98052.30
2019-03-13T16:59:36.462Z,98046.79
2019-03-13T17:02:06.705Z,98047.73
2019-03-13T17:04:36.795Z,98050.34
2019-03-13T17:07:07.256Z,98055.88
2019-03-13T17:09:38.225Z,98048.39
2019-03-13T17:12:08.624Z,98037.84
2019-03-13T17:14:39.112Z,98031.61
2019-03-13T17:17:09.130Z,98038.99
2019-03-13T17:19:39.240Z,98032.87
2019-03-13T17:22:09.205Z,98039.05
2019-03-13T17:24:39.256Z,98032.84
2019-03-13T17:27:09.631Z,98035.88
2019-03-13T17:29:39.487Z,98029.63
2019-03-13T17:32:09.410Z,98046.67
2019-03-13T17:34:38.692Z,98046.77
2019-03-13T17:37:08.015Z,98042.37
2019-03-13T17:39:37.120Z,98039.59
2019-03-13T17:42:06.423Z,98035.70
2019-03-13T17:44:35.585Z,98033.21
2019-03-13T17:47:04.820Z,98033.66
2019-03-13T17:49:34.052Z,98040.63
2019-03-13T17:52:03.262Z,98032.22
2019-03-13T17:54:32.466Z,98046.52
2019-03-13T17:57:01.667Z,98039.17
2019-03-13T17:59:30.894Z,98040.05
2019-03-13T18:02:00.171Z,98040.39
2019-03-13T18:04:29.430Z,98042.69
2019-03-13T18:06:58.584Z,98049.44
2019-03-13T18:09:27.774Z,98039.48
2019-03-13T18:11:56.973Z,98037.06
2019-03-13T18:14:29.588Z,98028.98
2019-03-13T18:16:57.110Z,98028.28
2019-03-13T18:19:26.267Z,98023.41
2019-03-13T18:21:55.416Z,98022.69
2019-03-13T18:24:24.608Z,98030.99
2019-03-13T18:26:53.756Z,98014.59
2019-03-13T18:29:22.925Z,98018.41
2019-03-13T18:31:52.117Z,98036.31
2019-03-13T18:34:21.287Z,98033.20
2019-03-13T18:36:54.648Z,98051.48
2019-03-13T18:39:23.841Z,98077.70
2019-03-13T18:41:52.994Z,98071.91
2019-03-13T18:44:22.259Z,98087.19
2019-03-13T18:46:51.491Z,98099.79
2019-03-13T18:49:20.694Z,98092.93
2019-03-13T18:51:49.844Z,98107.66
2019-03-13T18:54:18.987Z,98118.25
2019-03-13T18:56:48.177Z,98120.97
2019-03-13T18:59:17.340Z,98115.73
2019-03-13T19:01:46.520Z,98126.17
2019-03-13T19:04:15.661Z,98134.91
2019-03-13T19:06:44.840Z,98139.17
2019-03-13T19:09:13.958Z,98132.67
2019-03-13T19:11:43.252Z,98147.41
2019-03-13T19:14:12.481Z,98147.61
2019-03-13T19:16:41.815Z,98140.82
2019-03-13T19:19:10.965Z,98137.75
2019-03-13T19:21:40.264Z,98144.30
2019-03-13T19:24:09.412Z,98135.92
2019-03-13T19:26:38.610Z,98145.08
2019-03-13T19:29:07.795Z,98144.16
2019-03-13T19:31:37.008Z,98144.73
2019-03-13T19:34:06.245Z,98153.93
2019-03-13T19:36:35.488Z,98151.61
2019-03-13T19:39:05.528Z,98151.30
2019-03-13T19:41:34.766Z,98143.00
2019-03-13T19:44:03.970Z,98131.02
2019-03-13T19:46:33.235Z,98134.82
2019-03-13T19:49:02.463Z,98129.45
2019-03-13T19:51:31.614Z,98122.80
2019-03-13T19:54:01.055Z,98130.42
2019-03-13T19:56:30.224Z,98137.30
2019-03-13T19:58:59.409Z,98129.12
2019-03-13T20:01:28.588Z,98131.49
2019-03-13T20:03:57.912Z,98134.63
2019-03-13T20:06:27.064Z,98136.99
2019-03-13T20:08:56.543Z,98137.38
2019-03-13T20:11:25.737Z,98134.43
2019-03-13T20:13:54.923Z,98137.06
2019-03-13T20:16:24.165Z,98141.95
2019-03-13T20:18:53.406Z,98135.52
2019-03-13T20:21:22.489Z,98145.88
2019-03-13T20:23:51.716Z,98139.69
2019-03-13T20:26:20.933Z,98139.91
2019-03-13T20:28:50.118Z,98130.88
2019-03-13T20:31:19.259Z,98121.64
2019-03-13T20:33:48.477Z,98126.73
2019-03-13T20:36:17.723Z,98139.53
2019-03-13T20:38:47.435Z,98128.17
2019-03-13T20:41:16.662Z,98128.89
2019-03-13T20:43:46.533Z,98121.41
2019-03-13T20:46:15.851Z,98124.73
2019-03-13T20:48:45.091Z,98127.59
2019-03-13T20:51:14.280Z,98132.10
2019-03-13T20:53:43.461Z,98152.14
2019-03-13T20:56:12.719Z,98142.48
2019-03-13T20:58:41.873Z,98142.94
2019-03-13T21:01:11.105Z,98135.99
2019-03-13T21:03:40.257Z,98114.60
2019-03-13T21:06:09.416Z,98113.80
2019-03-13T21:08:38.552Z,98139.03
2019-03-13T21:11:07.741Z,98151.99
2019-03-13T21:13:37.024Z,98143.06
2019-03-13T21:16:06.297Z,98157.27
2019-03-13T21:18:35.441Z,98153.44
2019-03-13T21:21:04.693Z,98164.22
2019-03-13T21:23:33.866Z,98175.92
2019-03-13T21:26:03.167Z,98165.45
2019-03-13T21:28:32.388Z,98178.08
2019-03-13T21:31:03.861Z,98174.01
2019-03-13T21:33:32.641Z,98185.31
2019-03-13T21:36:01.912Z,98186.53
2019-03-13T21:38:31.159Z,98195.39
2019-03-13T21:41:00.402Z,98184.91
2019-03-13T21:43:29.619Z,98185.86
2019-03-13T21:45:58.792Z,98197.49
2019-03-13T21:48:28.114Z,98201.75
2019-03-13T21:50:57.282Z,98212.91
2019-03-13T21:53:26.475Z,98207.92
2019-03-13T21:55:55.640Z,98206.28
2019-03-13T21:58:24.912Z,98223.08
2019-03-13T22:02:40.732Z,98229.94
2019-03-13T22:05:09.871Z,98231.13
2019-03-13T22:07:39.093Z,98230.21
2019-03-13T22:10:08.466Z,98242.98
2019-03-13T22:12:37.689Z,98238.54
2019-03-13T22:15:07.325Z,98246.02
2019-03-13T22:17:36.735Z,98244.60
2019-03-13T22:20:06.677Z,98236.36
2019-03-13T22:22:35.984Z,98254.23
2019-03-13T22:25:05.347Z,98252.20
2019-03-13T22:27:34.542Z,98259.56
2019-03-13T22:30:03.904Z,98255.97
2019-03-13T22:32:33.048Z,98263.30
2019-03-13T22:35:02.240Z,98264.09
2019-03-13T22:37:31.434Z,98274.22
2019-03-13T22:40:00.603Z,98269.73
2019-03-13T22:42:30.959Z,98276.43
2019-03-13T22:45:00.400Z,98275.34
2019-03-13T22:47:41.663Z,98280.11
2019-03-13T22:50:00.536Z,98282.22
2019-03-13T22:52:29.657Z,98285.10
2019-03-13T22:54:59.019Z,98291.52
2019-03-13T22:57:28.133Z,98288.70
2019-03-13T22:59:57.366Z,98308.00
2019-03-13T23:02:26.564Z,98298.88
2019-03-13T23:04:55.730Z,98296.56
2019-03-13T23:07:24.999Z,98300.91
2019-03-13T23:09:54.362Z,98305.39
2019-03-13T23:12:23.508Z,98302.39
2019-03-13T23:14:52.673Z,98308.26
2019-03-13T23:17:21.960Z,98305.76
2019-03-13T23:19:51.329Z,98309.46
2019-03-13T23:22:20.498Z,98314.89
2019-03-13T23:24:49.685Z,98320.11
2019-03-13T23:27:18.851Z,98310.19
2019-03-13T23:29:48.087Z,98300.25
2019-03-13T23:32:17.257Z,98309.84
2019-03-13T23:34:46.432Z,98318.97
2019-03-13T23:37:15.712Z,98321.19
2019-03-13T23:39:44.887Z,98327.58
2019-03-13T23:42:14.104Z,98323.61
2019-03-13T23:44:43.477Z,98318.86
2019-03-13T23:47:12.827Z,98317.22
2019-03-13T23:49:41.951Z,98323.05
2019-03-13T23:52:11.159Z,98320.22
2019-03-13T23:54:40.288Z,98327.47
2019-03-13T23:57:09.449Z,98336.95
2019-03-13T23:59:38.596Z,98334.23
